createdAt,value
2022-10-13T00:01:14.504Z,10.40
2022-10-13T00:03:42.835Z,11.10
2022-10-13T00:06:11.677Z,10.40
2022-10-13T00:08:41.082Z,11.10
2022-10-13T00:11:22.110Z,10.70
2022-10-13T00:13:50.988Z,11.30
2022-10-13T00:16:21.457Z,10.40
2022-10-13T00:18:49.506Z,11.10
2022-10-13T00:21:21.278Z,10.50
2022-10-13T00:23:50.319Z,10.40
2022-10-13T00:26:18.884Z,10.40
2022-10-13T00:28:51.222Z,10.80
2022-10-13T00:31:23.157Z,10.50
2022-10-13T00:33:50.940Z,10.50
2022-10-13T00:36:18.142Z,11.00
2022-10-13T00:38:45.294Z,10.30
2022-10-13T00:41:12.837Z,11.00
2022-10-13T00:44:07.291Z,10.80
2022-10-13T00:46:37.236Z,10.40
2022-10-13T00:49:13.350Z,11.10
2022-10-13T00:51:46.838Z,10.10
2022-10-13T00:54:21.232Z,10.20
2022-10-13T00:56:50.983Z,11.10
2022-10-13T00:59:27.468Z,10.20
2022-10-13T01:01:57.660Z,10.80
2022-10-13T01:04:30.968Z,10.30
2022-10-13T01:06:59.064Z,11.10
2022-10-13T01:09:26.159Z,11.20
2022-10-13T01:12:21.244Z,11.10
2022-10-13T01:14:58.104Z,10.60
2022-10-13T01:17:54.395Z,10.00
2022-10-13T01:20:27.474Z,11.40
2022-10-13T01:23:58.983Z,10.80
2022-10-13T01:26:59.889Z,10.30
2022-10-13T01:30:12.981Z,9.80
2022-10-13T01:32:53.961Z,10.30
2022-10-13T01:35:39.889Z,11.00
2022-10-13T01:38:35.113Z,10.40
2022-10-13T01:41:39.259Z,10.90
2022-10-13T01:44:18.550Z,11.20
2022-10-13T01:46:48.717Z,11.00
2022-10-13T01:49:20.188Z,9.50
2022-10-13T01:51:49.800Z,9.40
2022-10-13T01:56:56.532Z,10.80
2022-10-13T01:59:27.861Z,10.30
2022-10-13T02:02:29.508Z,10.00
2022-10-13T02:05:49.595Z,10.10
2022-10-13T02:08:28.460Z,10.90
2022-10-13T02:11:20.463Z,10.60
2022-10-13T02:13:59.543Z,10.80
2022-10-13T02:16:31.991Z,11.30
2022-10-13T02:18:59.693Z,11.00
2022-10-13T02:21:27.358Z,10.60
2022-10-13T02:23:54.464Z,9.70
2022-10-13T02:26:22.643Z,11.40
2022-10-13T02:28:49.802Z,10.90
2022-10-13T02:33:44.642Z,10.60
2022-10-13T02:36:12.631Z,11.00
2022-10-13T02:41:07.132Z,10.30
2022-10-13T02:46:04.840Z,11.10
2022-10-13T02:50:59.718Z,10.60
2022-10-13T02:53:27.063Z,10.20
2022-10-13T02:58:21.696Z,11.40
2022-10-13T03:00:48.899Z,10.90
2022-10-13T03:03:15.958Z,11.50
2022-10-13T03:05:44.366Z,11.40
2022-10-13T03:08:11.883Z,10.30
2022-10-13T03:10:38.998Z,10.50
2022-10-13T03:13:06.227Z,11.30
2022-10-13T03:15:33.316Z,10.90
2022-10-13T03:18:00.378Z,11.30
2022-10-13T03:22:54.875Z,10.80
2022-10-13T03:27:50.219Z,10.20
2022-10-13T03:35:12.941Z,10.70
2022-10-13T03:37:40.137Z,10.60
2022-10-13T03:40:08.407Z,11.40
2022-10-13T03:42:39.999Z,11.00
2022-10-13T03:45:08.513Z,10.50
2022-10-13T03:47:36.858Z,10.30
2022-10-13T03:50:06.105Z,10.50
2022-10-13T03:55:02.209Z,10.50
2022-10-13T03:59:57.841Z,10.70
2022-10-13T04:04:52.414Z,10.70
2022-10-13T04:07:19.537Z,10.80
2022-10-13T04:09:46.782Z,11.20
2022-10-13T04:12:17.174Z,10.80
2022-10-13T04:14:47.902Z,10.60
2022-10-13T04:19:42.537Z,11.60
2022-10-13T04:24:37.505Z,11.30
2022-10-13T04:27:04.860Z,10.60
2022-10-13T04:32:00.272Z,11.30
2022-10-13T04:34:27.463Z,11.10
2022-10-13T04:39:22.092Z,10.80
2022-10-13T04:44:18.087Z,10.60
2022-10-13T04:46:45.205Z,10.70
2022-10-13T04:49:12.326Z,11.30
2022-10-13T04:54:06.953Z,11.10
2022-10-13T04:56:34.175Z,10.50
2022-10-13T04:59:01.975Z,11.00
2022-10-13T05:01:29.130Z,11.50
2022-10-13T05:04:00.864Z,10.60
2022-10-13T05:06:32.792Z,11.10
2022-10-13T05:11:29.604Z,11.50
2022-10-13T05:13:59.318Z,10.70
2022-10-13T05:16:28.134Z,11.20
2022-10-13T05:18:56.394Z,10.70
2022-10-13T05:21:28.330Z,10.40
2022-10-13T05:23:57.729Z,11.00
2022-10-13T05:26:29.144Z,9.90
2022-10-13T05:28:58.482Z,10.60
2022-10-13T05:31:28.116Z,11.40
2022-10-13T05:33:56.018Z,11.10
2022-10-13T05:36:33.717Z,10.70
2022-10-13T05:39:05.861Z,11.30
2022-10-13T05:44:06.709Z,11.30
2022-10-13T05:49:02.089Z,11.30
2022-10-13T05:51:44.847Z,10.70
2022-10-13T05:54:17.726Z,11.20
2022-10-13T05:57:03.153Z,11.60
2022-10-13T05:59:37.507Z,10.00
2022-10-13T06:02:09.604Z,12.10
2022-10-13T06:04:44.342Z,11.80
2022-10-13T06:07:12.725Z,10.80
2022-10-13T06:09:41.840Z,10.60
2022-10-13T06:12:10.522Z,11.30
2022-10-13T06:14:37.736Z,11.20
2022-10-13T06:17:05.038Z,11.90
2022-10-13T06:22:03.419Z,11.70
2022-10-13T06:26:58.909Z,12.20
2022-10-13T06:36:48.741Z,11.50
2022-10-13T06:46:38.569Z,11.60
2022-10-13T06:49:05.934Z,11.80
2022-10-13T06:54:00.576Z,11.80
2022-10-13T06:56:29.851Z,11.20
2022-10-13T06:58:56.953Z,11.50
2022-10-13T07:01:24.037Z,12.10
2022-10-13T07:03:53.551Z,12.00
2022-10-13T07:06:21.310Z,13.30
2022-10-13T07:08:48.518Z,13.40
2022-10-13T07:14:04.099Z,12.80
2022-10-13T07:16:31.891Z,13.70
2022-10-13T07:18:59.134Z,13.30
2022-10-13T07:21:26.571Z,11.80
2022-10-13T07:26:21.415Z,12.90
2022-10-13T07:28:49.067Z,13.50
2022-10-13T07:31:19.761Z,13.30
2022-10-13T07:33:50.312Z,12.60
2022-10-13T07:36:18.400Z,13.30
2022-10-13T07:38:46.907Z,13.90
2022-10-13T07:41:14.673Z,13.10
2022-10-13T07:43:42.308Z,14.00
2022-10-13T07:46:12.237Z,13.30
2022-10-13T07:48:40.242Z,13.20
2022-10-13T07:51:13.092Z,13.20
2022-10-13T07:53:42.650Z,13.30
2022-10-13T07:56:13.298Z,13.00
2022-10-13T07:58:44.971Z,13.90
2022-10-13T08:01:13.268Z,13.20
2022-10-13T08:03:45.562Z,13.40
2022-10-13T08:06:17.594Z,14.70
2022-10-13T08:11:16.652Z,13.50
2022-10-13T08:13:51.717Z,14.40
2022-10-13T08:16:19.805Z,14.30
2022-10-13T08:18:48.655Z,14.70
2022-10-13T08:21:56.822Z,14.40
2022-10-13T08:24:12.696Z,14.50
2022-10-13T08:26:40.742Z,14.60
2022-10-13T08:31:53.917Z,14.80
2022-10-13T08:34:25.702Z,14.10
2022-10-13T08:36:56.387Z,15.60
2022-10-13T08:39:25.226Z,15.60
2022-10-13T08:41:54.372Z,14.60
2022-10-13T08:45:06.211Z,16.70
2022-10-13T08:47:45.437Z,16.30
2022-10-13T08:50:25.223Z,16.00
2022-10-13T08:53:02.848Z,16.00
2022-10-13T08:55:40.196Z,15.90
2022-10-13T08:58:18.883Z,15.40
2022-10-13T09:03:29.792Z,16.10
2022-10-13T09:06:17.060Z,15.80
2022-10-13T09:09:05.327Z,17.30
2022-10-13T09:11:40.637Z,16.70
2022-10-13T09:14:12.677Z,17.40
2022-10-13T09:16:43.726Z,17.60
2022-10-13T09:19:34.346Z,18.20
2022-10-13T09:22:33.953Z,17.90
2022-10-13T09:25:06.937Z,18.20
2022-10-13T09:28:02.709Z,20.30
2022-10-13T09:30:38.378Z,19.60
2022-10-13T09:33:05.393Z,19.90
2022-10-13T09:35:35.129Z,18.80
2022-10-13T09:38:22.351Z,19.60
2022-10-13T09:41:10.199Z,20.00
2022-10-13T09:43:46.208Z,18.80
2022-10-13T09:46:28.297Z,20.30
2022-10-13T09:49:39.061Z,19.90
2022-10-13T09:52:21.571Z,20.30
2022-10-13T09:54:56.449Z,22.20
2022-10-13T09:57:36.130Z,21.60
2022-10-13T10:00:32.640Z,21.90
2022-10-13T10:03:27.560Z,22.20
2022-10-13T10:06:05.681Z,22.60
2022-10-13T10:09:09.680Z,23.00
2022-10-13T10:11:46.677Z,23.00
2022-10-13T10:14:33.946Z,22.00
2022-10-13T10:17:28.721Z,23.80
2022-10-13T10:20:20.494Z,22.20
2022-10-13T10:23:21.333Z,22.10
2022-10-13T10:26:06.754Z,22.50
2022-10-13T10:31:41.748Z,21.80
2022-10-13T10:34:23.343Z,22.50
2022-10-13T10:37:14.408Z,22.10
2022-10-13T10:39:54.809Z,21.00
2022-10-13T10:42:52.112Z,21.90
2022-10-13T10:45:27.811Z,19.70
2022-10-13T10:48:02.658Z,21.20
2022-10-13T10:50:32.142Z,20.50
2022-10-13T10:53:29.861Z,20.40
2022-10-13T10:56:13.861Z,21.90
2022-10-13T10:59:08.263Z,20.20
2022-10-13T11:01:48.470Z,20.20
2022-10-13T11:04:41.541Z,20.10
2022-10-13T11:07:24.727Z,20.10
2022-10-13T11:09:51.899Z,20.40
2022-10-13T11:12:22.557Z,20.40
2022-10-13T11:15:22.388Z,20.50
2022-10-13T11:17:49.786Z,20.60
2022-10-13T11:20:22.398Z,20.10
2022-10-13T11:23:01.611Z,19.60
2022-10-13T11:25:48.897Z,20.80
2022-10-13T11:28:22.393Z,22.10
2022-10-13T11:31:17.218Z,22.60
2022-10-13T11:34:00.821Z,22.80
2022-10-13T11:36:35.079Z,22.60
2022-10-13T11:39:17.022Z,22.50
2022-10-13T11:41:56.154Z,21.90
2022-10-13T11:44:54.870Z,22.60
2022-10-13T11:48:11.990Z,22.30
2022-10-13T11:50:48.578Z,22.20
2022-10-13T11:53:20.975Z,21.00
2022-10-13T11:55:55.223Z,21.60
2022-10-13T11:58:28.591Z,21.80
2022-10-13T12:01:12.074Z,22.10
2022-10-13T12:03:43.645Z,23.50
2022-10-13T12:06:16.800Z,22.50
2022-10-13T12:08:52.220Z,23.50
2022-10-13T12:11:33.353Z,23.50
2022-10-13T12:14:01.732Z,22.40
2022-10-13T12:16:30.221Z,22.10
2022-10-13T12:19:21.413Z,22.80
2022-10-13T12:21:51.843Z,22.70
2022-10-13T12:24:23.635Z,22.10
2022-10-13T12:26:52.559Z,22.50
2022-10-13T12:29:27.299Z,22.10
2022-10-13T12:31:55.490Z,23.50
2022-10-13T12:34:35.249Z,22.30
2022-10-13T12:37:31.171Z,22.40
2022-10-13T12:40:00.452Z,21.80
2022-10-13T12:42:38.260Z,22.20
2022-10-13T12:47:45.726Z,22.50
2022-10-13T12:50:27.757Z,20.70
2022-10-13T12:53:11.236Z,21.00
2022-10-13T12:55:58.910Z,21.30
2022-10-13T12:58:30.396Z,20.30
2022-10-13T13:01:14.894Z,21.30
2022-10-13T13:03:44.326Z,21.60
2022-10-13T13:06:15.441Z,22.40
2022-10-13T13:08:43.840Z,22.00
2022-10-13T13:11:35.357Z,22.50
2022-10-13T13:14:33.475Z,21.40
2022-10-13T13:17:38.817Z,22.40
2022-10-13T13:20:20.968Z,22.00
2022-10-13T13:22:48.433Z,21.20
2022-10-13T13:25:17.001Z,21.50
2022-10-13T13:27:44.334Z,21.30
2022-10-13T13:30:18.536Z,22.50
2022-10-13T13:32:46.469Z,23.00
2022-10-13T13:35:14.891Z,21.40
2022-10-13T13:37:50.542Z,22.40
2022-10-13T13:40:21.964Z,20.70
2022-10-13T13:42:49.208Z,21.70
2022-10-13T13:45:20.550Z,21.50
2022-10-13T13:50:31.731Z,20.00
2022-10-13T13:53:00.439Z,21.60
2022-10-13T13:55:29.786Z,21.90
2022-10-13T13:57:58.362Z,20.50
2022-10-13T14:00:27.242Z,20.80
2022-10-13T14:02:55.433Z,20.20
2022-10-13T14:07:52.796Z,21.20
2022-10-13T14:12:47.854Z,19.80
2022-10-13T14:15:15.067Z,19.60
2022-10-13T14:17:42.504Z,21.50
2022-10-13T14:20:10.928Z,20.30
2022-10-13T14:22:39.499Z,20.20
2022-10-13T14:25:08.319Z,19.60
2022-10-13T14:30:07.336Z,20.20
2022-10-13T14:32:37.167Z,18.50
2022-10-13T14:35:05.836Z,20.90
2022-10-13T14:37:34.004Z,20.70
2022-10-13T14:40:01.942Z,19.80
2022-10-13T14:42:29.123Z,19.00
2022-10-13T14:44:56.165Z,20.20
2022-10-13T14:47:23.745Z,20.40
2022-10-13T14:49:51.222Z,19.40
2022-10-13T14:52:18.385Z,19.80
2022-10-13T14:54:46.225Z,20.20
2022-10-13T14:57:16.128Z,18.80
2022-10-13T14:59:44.193Z,19.00
2022-10-13T15:02:13.120Z,17.80
2022-10-13T15:04:40.366Z,19.40
2022-10-13T15:07:08.117Z,18.80
2022-10-13T15:09:52.254Z,20.00
2022-10-13T15:12:23.189Z,17.90
2022-10-13T15:14:50.594Z,19.90
2022-10-13T15:17:17.925Z,18.80
2022-10-13T15:19:47.657Z,18.60
2022-10-13T15:22:14.951Z,18.70
2022-10-13T15:24:43.437Z,19.30
2022-10-13T15:27:10.626Z,18.40
2022-10-13T15:29:37.792Z,18.80
2022-10-13T15:32:18.474Z,18.50
2022-10-13T15:34:46.020Z,18.20
2022-10-13T15:37:13.598Z,17.70
2022-10-13T15:39:40.834Z,17.10
2022-10-13T15:42:08.311Z,18.80
2022-10-13T15:47:22.668Z,18.60
2022-10-13T15:49:49.919Z,18.00
2022-10-13T15:52:17.153Z,18.80
2022-10-13T15:54:44.451Z,19.10
2022-10-13T15:57:11.508Z,16.40
2022-10-13T15:59:38.807Z,17.20
2022-10-13T16:02:07.092Z,16.30
2022-10-13T16:07:05.391Z,17.30
2022-10-13T16:09:32.569Z,17.10
2022-10-13T16:12:00.166Z,17.30
2022-10-13T16:14:27.312Z,16.50
2022-10-13T16:16:54.676Z,16.40
2022-10-13T16:19:21.963Z,16.70
2022-10-13T16:24:16.739Z,17.00
2022-10-13T16:26:43.898Z,16.30
2022-10-13T16:29:10.933Z,16.10
2022-10-13T16:31:38.217Z,16.60
2022-10-13T16:36:33.398Z,17.40
2022-10-13T16:39:02.944Z,16.10
2022-10-13T16:41:30.137Z,17.00
2022-10-13T16:43:57.740Z,15.10
2022-10-13T16:46:25.442Z,16.70
2022-10-13T16:51:24.604Z,15.80
2022-10-13T16:53:58.652Z,15.90
2022-10-13T16:56:28.763Z,15.60
2022-10-13T16:59:05.271Z,14.80
2022-10-13T17:01:34.937Z,15.50
2022-10-13T17:04:04.329Z,15.80
2022-10-13T17:09:03.002Z,16.00
2022-10-13T17:11:32.805Z,15.10
2022-10-13T17:14:01.471Z,15.80
2022-10-13T17:16:30.258Z,16.00
2022-10-13T17:18:58.072Z,14.80
2022-10-13T17:23:56.161Z,14.80
2022-10-13T17:26:25.944Z,14.20
2022-10-13T17:28:54.368Z,14.60
2022-10-13T17:31:23.971Z,14.60
2022-10-13T17:33:51.976Z,14.60
2022-10-13T17:36:29.310Z,14.60
2022-10-13T17:39:06.423Z,14.50
2022-10-13T17:41:34.528Z,13.80
2022-10-13T17:44:02.736Z,14.10
2022-10-13T17:46:37.938Z,14.10
2022-10-13T17:49:10.859Z,14.40
2022-10-13T17:54:11.435Z,14.60
2022-10-13T17:59:10.484Z,13.40
2022-10-13T18:04:12.492Z,14.30
2022-10-13T18:06:44.114Z,13.80
2022-10-13T18:09:19.266Z,13.70
2022-10-13T18:11:51.193Z,13.70
2022-10-13T18:14:22.889Z,13.30
2022-10-13T18:16:52.799Z,13.60
2022-10-13T18:19:26.987Z,15.30
2022-10-13T18:24:25.478Z,13.00
2022-10-13T18:26:56.471Z,13.40
2022-10-13T18:29:24.783Z,12.90
2022-10-13T18:31:57.698Z,13.00
2022-10-13T18:34:25.676Z,13.20
2022-10-13T18:36:56.441Z,13.30
2022-10-13T18:39:29.721Z,13.20
2022-10-13T18:41:58.360Z,13.40
2022-10-13T18:46:56.964Z,15.20
2022-10-13T18:52:06.029Z,13.80
2022-10-13T18:54:34.464Z,11.70
2022-10-13T18:59:32.309Z,13.70
2022-10-13T19:04:28.541Z,13.00
2022-10-13T19:06:56.946Z,12.90
2022-10-13T19:12:04.128Z,14.00
2022-10-13T19:14:32.041Z,13.40
2022-10-13T19:17:02.124Z,13.30
2022-10-13T19:19:30.382Z,12.50
2022-10-13T19:24:25.397Z,13.50
2022-10-13T19:29:25.623Z,12.80
2022-10-13T19:31:53.333Z,13.60
2022-10-13T19:34:20.545Z,13.30
2022-10-13T19:36:48.505Z,12.40
2022-10-13T19:39:23.446Z,13.60
2022-10-13T19:41:53.477Z,12.30
2022-10-13T19:44:21.731Z,12.30
2022-10-13T19:46:50.272Z,12.60
2022-10-13T19:49:20.835Z,11.90
2022-10-13T19:51:49.940Z,13.00
2022-10-13T19:54:19.531Z,13.40
2022-10-13T19:56:49.581Z,13.20
2022-10-13T19:59:20.038Z,12.20
2022-10-13T20:01:47.865Z,12.60
2022-10-13T20:04:20.648Z,12.10
2022-10-13T20:06:52.556Z,12.10
2022-10-13T20:09:20.690Z,12.70
2022-10-13T20:11:51.310Z,11.30
2022-10-13T20:14:19.654Z,12.80
2022-10-13T20:16:47.238Z,11.70
2022-10-13T20:19:19.287Z,11.80
2022-10-13T20:21:48.258Z,13.30
2022-10-13T20:24:15.974Z,12.10
2022-10-13T20:26:43.234Z,12.70
2022-10-13T20:29:10.650Z,12.90
2022-10-13T20:31:38.162Z,11.60
2022-10-13T20:36:38.281Z,12.90
2022-10-13T20:39:06.287Z,12.00
2022-10-13T20:44:02.272Z,11.70
2022-10-13T20:46:29.481Z,12.30
2022-10-13T20:51:42.986Z,12.20
2022-10-13T20:54:12.788Z,12.10
2022-10-13T20:56:40.864Z,11.80
2022-10-13T20:59:12.518Z,11.90
2022-10-13T21:01:39.800Z,11.90
2022-10-13T21:04:07.380Z,11.40
2022-10-13T21:06:35.957Z,11.80
2022-10-13T21:09:05.772Z,13.10
2022-10-13T21:14:02.948Z,12.90
2022-10-13T21:16:30.353Z,11.20
2022-10-13T21:18:59.115Z,11.40
2022-10-13T21:21:30.219Z,11.40
2022-10-13T21:24:02.412Z,11.20
2022-10-13T21:26:31.660Z,12.00
2022-10-13T21:29:00.139Z,11.40
2022-10-13T21:31:28.632Z,10.30
2022-10-13T21:33:56.929Z,12.00
2022-10-13T21:36:30.564Z,11.50
2022-10-13T21:39:04.771Z,11.70
2022-10-13T21:41:32.342Z,12.10
2022-10-13T21:43:59.772Z,10.60
2022-10-13T21:46:31.191Z,11.30
2022-10-13T21:49:03.213Z,11.90
2022-10-13T21:51:34.658Z,12.10
2022-10-13T21:54:11.671Z,11.40
2022-10-13T21:56:40.831Z,11.70
2022-10-13T21:59:10.285Z,12.40
2022-10-13T22:01:37.333Z,11.00
2022-10-13T22:04:06.304Z,11.20
2022-10-13T22:09:04.142Z,11.10
2022-10-13T22:11:35.761Z,11.90
2022-10-13T22:14:04.349Z,11.50
2022-10-13T22:16:40.717Z,10.00
2022-10-13T22:19:08.199Z,11.70
2022-10-13T22:21:42.405Z,10.90
2022-10-13T22:24:14.048Z,10.80
2022-10-13T22:26:44.226Z,10.70
2022-10-13T22:29:16.092Z,10.80
2022-10-13T22:31:43.898Z,10.50
2022-10-13T22:34:13.069Z,12.00
2022-10-13T22:36:44.787Z,10.80
2022-10-13T22:39:13.665Z,11.10
2022-10-13T22:41:41.387Z,10.80
2022-10-13T22:44:09.088Z,10.50
2022-10-13T22:46:38.784Z,10.50
2022-10-13T22:49:07.699Z,10.60
2022-10-13T22:51:36.713Z,10.20
2022-10-13T22:54:04.858Z,11.30
2022-10-13T22:56:34.501Z,11.10
2022-10-13T22:59:07.074Z,10.30
2022-10-13T23:01:34.651Z,10.90
2022-10-13T23:06:33.782Z,10.80
2022-10-13T23:09:04.511Z,10.40
2022-10-13T23:11:32.181Z,10.10
2022-10-13T23:13:59.510Z,10.40
2022-10-13T23:16:27.548Z,10.40
2022-10-13T23:18:55.073Z,10.50
2022-10-13T23:21:26.319Z,10.10
2022-10-13T23:24:04.087Z,10.10
2022-10-13T23:26:32.998Z,10.80
2022-10-13T23:29:00.772Z,10.60
2022-10-13T23:31:29.351Z,10.10
2022-10-13T23:33:57.634Z,10.90
2022-10-13T23:36:28.577Z,9.60
2022-10-13T23:39:07.579Z,10.40
2022-10-13T23:44:03.088Z,10.90
2022-10-13T23:46:30.339Z,9.40
2022-10-13T23:48:57.471Z,10.90
2022-10-13T23:51:26.142Z,9.50
2022-10-13T23:56:23.895Z,10.10
2022-10-13T23:58:51.023Z,11.00
